Time;durP1;ratioP1;P1;durP2;ratioP2;P2;SDS_P1;SDS_P2;PMS_P1;PMS_P2;Temp;Humidity;BMP_temperature;BMP_pressure;BME280_temperature;BME280_humidity;BME280_pressure;Samples;Min_cycle;Max_cycle;Signal;HPM_P1;HPM_P2
2023/01/23 00:02:04;;;;;;;47.67;19.13;;;;;;;;;;5099159;27;20503;-76
2023/01/23 00:04:29;;;;;;;50.07;19.67;;;;;;;;;;5098926;27;20101;-75
2023/01/23 00:06:55;;;;;;;56.87;16.23;;;;;;;;;;5099261;27;20437;-75
2023/01/23 00:09:20;;;;;;;46.97;16.03;;;;;;;;;;5098991;27;20023;-76
2023/01/23 00:11:46;;;;;;;70.57;16.70;;;;;;;;;;5098812;27;20100;-75
2023/01/23 00:14:12;;;;;;;113.57;18.53;;;;;;;;;;5098811;27;20545;-75
2023/01/23 00:16:37;;;;;;;75.20;18.90;;;;;;;;;;5098763;27;20099;-75
2023/01/23 00:19:03;;;;;;;51.03;18.47;;;;;;;;;;5099042;27;20473;-75
2023/01/23 00:21:29;;;;;;;209.83;24.13;;;;;;;;;;5096597;27;20030;-75
2023/01/23 00:23:56;;;;;;;85.07;17.30;;;;;;;;;;5096523;27;20096;-74
2023/01/23 00:26:25;;;;;;;69.50;19.27;;;;;;;;;;5080282;27;20050;-75
2023/01/23 00:28:51;;;;;;;84.67;19.00;;;;;;;;;;5132251;27;20046;-75
2023/01/23 00:31:19;;;;;;;70.03;20.23;;;;;;;;;;5113598;27;20027;-75
2023/01/23 00:33:45;;;;;;;69.40;19.87;;;;;;;;;;5077966;27;20031;-75
2023/01/23 00:36:11;;;;;;;68.70;20.93;;;;;;;;;;5113020;27;20435;-76
2023/01/23 00:38:37;;;;;;;83.47;21.80;;;;;;;;;;5115050;27;20039;-76
2023/01/23 00:41:03;;;;;;;80.60;20.73;;;;;;;;;;5098709;27;20107;-75
2023/01/23 00:43:31;;;;;;;72.53;21.23;;;;;;;;;;5098231;27;20054;-74
2023/01/23 00:45:57;;;;;;;76.73;22.10;;;;;;;;;;5115510;27;20035;-76
2023/01/23 00:48:23;;;;;;;57.23;21.73;;;;;;;;;;5098354;27;20358;-76
2023/01/23 00:50:48;;;;;;;85.77;22.90;;;;;;;;;;5098300;27;20142;-76
2023/01/23 00:53:14;;;;;;;82.93;23.83;;;;;;;;;;5097923;28;20122;-75
2023/01/23 00:55:40;;;;;;;82.87;20.77;;;;;;;;;;5098268;27;20203;-74
2023/01/23 00:58:07;;;;;;;120.43;20.77;;;;;;;;;;5081706;27;20034;-74
2023/01/23 01:00:34;;;;;;;67.93;20.87;;;;;;;;;;5115500;27;20043;-75
2023/01/23 01:03:01;;;;;;;71.63;20.67;;;;;;;;;;5115005;28;20049;-75
2023/01/23 01:05:28;;;;;;;95.57;21.97;;;;;;;;;;5094779;28;20055;-77
2023/01/23 01:07:53;;;;;;;57.67;20.10;;;;;;;;;;5094653;28;20045;-76
2023/01/23 01:10:19;;;;;;;66.60;19.47;;;;;;;;;;5111614;28;20078;-77
2023/01/23 01:12:45;;;;;;;61.60;19.93;;;;;;;;;;5094507;28;20465;-76
2023/01/23 01:15:11;;;;;;;56.27;18.97;;;;;;;;;;5094644;28;20428;-77
2023/01/23 01:17:37;;;;;;;60.67;19.67;;;;;;;;;;5112015;28;20046;-77
2023/01/23 01:20:04;;;;;;;64.83;18.73;;;;;;;;;;5094590;28;20039;-77
2023/01/23 01:22:29;;;;;;;57.43;17.40;;;;;;;;;;5077490;28;20134;-76
2023/01/23 01:24:56;;;;;;;56.43;18.13;;;;;;;;;;5094500;28;20138;-76
2023/01/23 01:27:22;;;;;;;46.17;16.60;;;;;;;;;;5094011;28;20039;-76
2023/01/23 01:29:47;;;;;;;47.90;16.90;;;;;;;;;;5094298;28;20045;-76
2023/01/23 01:32:14;;;;;;;41.17;15.60;;;;;;;;;;5111953;28;20070;-76
2023/01/23 01:34:39;;;;;;;68.53;16.27;;;;;;;;;;5094353;28;20044;-76
2023/01/23 01:37:05;;;;;;;52.50;16.43;;;;;;;;;;5128536;28;20024;-76
2023/01/23 01:39:32;;;;;;;44.03;16.20;;;;;;;;;;5110537;28;20075;-76
2023/01/23 01:41:58;;;;;;;47.47;17.67;;;;;;;;;;5127425;28;20071;-76
2023/01/23 01:44:24;;;;;;;50.07;16.00;;;;;;;;;;5093447;28;20488;-75
2023/01/23 01:46:50;;;;;;;42.03;15.40;;;;;;;;;;5093916;28;20382;-75
2023/01/23 01:49:25;;;;;;;41.47;15.30;;;;;;;;;;5092890;28;20083;-76
2023/01/23 01:51:54;;;;;;;113.20;17.30;;;;;;;;;;5111179;28;20031;-75
2023/01/23 01:54:30;;;;;;;39.35;16.30;;;;;;;;;;5094488;28;20058;-76
2023/01/23 01:57:14;;;;;;;36.93;12.87;;;;;;;;;;5077596;28;20054;-75
2023/01/23 01:59:48;;;;;;;53.10;13.67;;;;;;;;;;5077776;28;20115;-76
2023/01/23 02:02:34;;;;;;;37.13;14.50;;;;;;;;;;5111409;28;20122;-76
2023/01/23 02:05:02;;;;;;;34.77;13.67;;;;;;;;;;5094279;28;20055;-76
2023/01/23 02:07:34;;;;;;;42.60;15.47;;;;;;;;;;5115112;28;20040;-75
2023/01/23 02:10:01;;;;;;;35.13;14.33;;;;;;;;;;5097802;28;20419;-76
2023/01/23 02:12:28;;;;;;;37.30;14.70;;;;;;;;;;5081437;28;20047;-75
2023/01/23 02:14:54;;;;;;;108.50;15.40;;;;;;;;;;5097883;28;20028;-75
2023/01/23 02:17:20;;;;;;;39.10;13.57;;;;;;;;;;5098186;28;20112;-75
2023/01/23 02:19:56;;;;;;;62.97;14.90;;;;;;;;;;5114720;28;20180;-74
2023/01/23 02:22:44;;;;;;;35.70;13.83;;;;;;;;;;5097593;28;20150;-73
2023/01/23 02:25:14;;;;;;;32.03;12.33;;;;;;;;;;5097828;28;20088;-76
2023/01/23 02:27:39;;;;;;;38.83;14.37;;;;;;;;;;5097792;28;20031;-73
2023/01/23 02:30:06;;;;;;;36.97;14.77;;;;;;;;;;5097476;28;20499;-74
2023/01/23 02:32:32;;;;;;;32.00;13.57;;;;;;;;;;5097562;28;20084;-74
2023/01/23 02:34:59;;;;;;;41.70;13.50;;;;;;;;;;5114412;28;20074;-74
2023/01/23 02:37:28;;;;;;;34.67;13.23;;;;;;;;;;5097434;28;20188;-74
2023/01/23 02:39:55;;;;;;;35.30;13.40;;;;;;;;;;5114152;28;20066;-74
2023/01/23 02:42:21;;;;;;;33.00;12.50;;;;;;;;;;5097078;28;20089;-73
2023/01/23 02:44:52;;;;;;;37.47;12.57;;;;;;;;;;5096880;28;20401;-74
2023/01/23 02:47:19;;;;;;;37.67;13.43;;;;;;;;;;5082819;28;20028;-74
2023/01/23 02:49:46;;;;;;;35.03;13.37;;;;;;;;;;5040192;28;20094;-74
2023/01/23 02:52:12;;;;;;;29.97;12.13;;;;;;;;;;5073567;28;20040;-74
2023/01/23 02:54:39;;;;;;;31.13;12.97;;;;;;;;;;5040163;28;20039;-74
2023/01/23 02:57:05;;;;;;;39.43;11.87;;;;;;;;;;5073398;28;20032;-74
2023/01/23 03:02:16;;;;;;;42.83;12.10;;;;;;;;;;5056152;28;20042;-74
2023/01/23 03:04:42;;;;;;;38.57;11.97;;;;;;;;;;5066272;28;20056;-74
2023/01/23 03:07:07;;;;;;;39.57;12.87;;;;;;;;;;5093689;28;20043;-74
2023/01/23 03:09:33;;;;;;;34.90;13.00;;;;;;;;;;5093142;28;20114;-75
2023/01/23 03:12:00;;;;;;;36.67;13.00;;;;;;;;;;5110043;28;20043;-74
2023/01/23 03:14:25;;;;;;;37.17;13.37;;;;;;;;;;5059693;28;20052;-76
2023/01/23 03:16:52;;;;;;;40.70;14.37;;;;;;;;;;5092485;28;20474;-75
2023/01/23 03:19:22;;;;;;;37.60;13.77;;;;;;;;;;5092803;28;20024;-74
2023/01/23 03:21:49;;;;;;;42.30;14.67;;;;;;;;;;5109791;28;20500;-74
2023/01/23 03:24:15;;;;;;;38.50;14.03;;;;;;;;;;5091959;28;20048;-75
2023/01/23 03:26:42;;;;;;;39.63;14.40;;;;;;;;;;5091933;28;20039;-74
2023/01/23 03:31:58;;;;;;;36.87;13.87;;;;;;;;;;5092222;28;20564;-75
2023/01/23 03:34:24;;;;;;;37.57;13.20;;;;;;;;;;5073854;28;20032;-75
2023/01/23 03:36:54;;;;;;;42.07;14.20;;;;;;;;;;5092463;28;20086;-75
2023/01/23 03:42:04;;;;;;;40.53;14.33;;;;;;;;;;5077880;28;20466;-76
2023/01/23 03:44:31;;;;;;;33.03;12.90;;;;;;;;;;5075676;28;20165;-77
2023/01/23 03:46:57;;;;;;;37.17;14.10;;;;;;;;;;5075475;28;20043;-75
2023/01/23 03:49:23;;;;;;;32.83;13.47;;;;;;;;;;5092196;28;20105;-75
2023/01/23 03:51:55;;;;;;;43.53;15.43;;;;;;;;;;5092001;28;20038;-76
2023/01/23 03:54:21;;;;;;;41.07;15.70;;;;;;;;;;5058000;28;20028;-76
2023/01/23 03:56:47;;;;;;;39.57;14.40;;;;;;;;;;5059035;28;20126;-75
2023/01/23 03:59:33;;;;;;;41.20;16.00;;;;;;;;;;5077692;28;20044;-76
2023/01/23 04:02:03;;;;;;;34.17;13.37;;;;;;;;;;5074200;28;20068;-76
2023/01/23 04:04:32;;;;;;;40.80;16.30;;;;;;;;;;5100267;28;20142;-76
2023/01/23 04:07:02;;;;;;;47.70;16.70;;;;;;;;;;5062346;28;20047;-76
2023/01/23 04:09:30;;;;;;;41.90;15.07;;;;;;;;;;5095174;28;20047;-75
2023/01/23 04:11:58;;;;;;;38.33;15.03;;;;;;;;;;5095290;28;20040;-75
2023/01/23 04:14:29;;;;;;;41.53;16.53;;;;;;;;;;5095181;28;20377;-73
2023/01/23 04:16:58;;;;;;;37.42;14.75;;;;;;;;;;5062134;28;20067;-75
2023/01/23 04:19:29;;;;;;;44.80;14.87;;;;;;;;;;5111354;28;20473;-75
2023/01/23 04:21:55;;;;;;;36.05;13.48;;;;;;;;;;5095044;28;20038;-72
2023/01/23 04:24:20;;;;;;;26.87;12.07;;;;;;;;;;5067708;28;20047;-73
2023/01/23 04:26:48;;;;;;;20.50;8.93;;;;;;;;;;5112249;28;20381;-75
2023/01/23 04:29:15;;;;;;;16.13;8.00;;;;;;;;;;5094198;28;20488;-72
2023/01/23 04:31:43;;;;;;;15.10;8.97;;;;;;;;;;5077667;28;20043;-74
2023/01/23 04:34:10;;;;;;;24.57;11.27;;;;;;;;;;5094514;28;20381;-74
2023/01/23 04:36:37;;;;;;;27.83;13.00;;;;;;;;;;5094394;28;20035;-74
2023/01/23 04:39:03;;;;;;;11.77;6.27;;;;;;;;;;5060721;28;20031;-76
2023/01/23 04:41:30;;;;;;;28.07;11.13;;;;;;;;;;5092239;28;20128;-73
2023/01/23 04:44:19;;;;;;;21.90;9.07;;;;;;;;;;5093688;27;20038;-73
2023/01/23 04:47:04;;;;;;;19.13;9.15;;;;;;;;;;5117553;27;20031;-81
2023/01/23 04:49:30;;;;;;;28.73;11.27;;;;;;;;;;5077852;28;20126;-77
2023/01/23 04:51:55;;;;;;;20.87;10.07;;;;;;;;;;5060455;28;20043;-80
2023/01/23 04:54:23;;;;;;;23.10;10.70;;;;;;;;;;5078099;28;20035;-78
2023/01/23 04:56:49;;;;;;;31.03;12.77;;;;;;;;;;5078812;28;20046;-78
2023/01/23 04:59:17;;;;;;;29.60;12.57;;;;;;;;;;5077050;28;20073;-77
2023/01/23 05:01:43;;;;;;;26.83;11.80;;;;;;;;;;5059867;28;20465;-71
2023/01/23 05:04:10;;;;;;;24.77;10.50;;;;;;;;;;5093143;28;20162;-69
2023/01/23 05:06:36;;;;;;;33.17;11.97;;;;;;;;;;5059995;28;20040;-68
2023/01/23 05:09:01;;;;;;;23.80;10.77;;;;;;;;;;5060141;28;20034;-69
2023/01/23 05:11:37;;;;;;;21.27;9.33;;;;;;;;;;5077500;28;20035;-69
2023/01/23 05:14:03;;;;;;;21.07;10.07;;;;;;;;;;5060007;28;20471;-69
2023/01/23 05:16:30;;;;;;;25.73;11.07;;;;;;;;;;5076894;28;20130;-69
2023/01/23 05:19:18;;;;;;;28.77;12.33;;;;;;;;;;5091245;28;20493;-69
2023/01/23 05:21:44;;;;;;;26.87;10.03;;;;;;;;;;5076871;28;20050;-69
2023/01/23 05:24:14;;;;;;;22.73;8.57;;;;;;;;;;5077060;28;20051;-69
2023/01/23 05:26:41;;;;;;;17.83;9.67;;;;;;;;;;5076698;28;20039;-69
2023/01/23 05:29:08;;;;;;;22.53;9.33;;;;;;;;;;5111233;28;20040;-70
2023/01/23 05:31:37;;;;;;;27.07;10.70;;;;;;;;;;5077097;28;20039;-69
2023/01/23 05:34:21;;;;;;;26.70;9.90;;;;;;;;;;5096250;28;20066;-68
2023/01/23 05:36:47;;;;;;;22.90;10.07;;;;;;;;;;5093564;28;20060;-69
2023/01/23 05:39:14;;;;;;;21.80;9.50;;;;;;;;;;5076317;28;20031;-69
2023/01/23 05:41:40;;;;;;;20.87;8.90;;;;;;;;;;5080316;28;20046;-70
2023/01/23 05:44:29;;;;;;;23.83;8.93;;;;;;;;;;5077896;28;20079;-67
2023/01/23 05:47:03;;;;;;;24.40;9.90;;;;;;;;;;5097249;28;20126;-69
2023/01/23 05:49:31;;;;;;;23.57;10.47;;;;;;;;;;5063531;28;20092;-69
2023/01/23 05:51:58;;;;;;;22.03;8.87;;;;;;;;;;5090127;27;20059;-68
2023/01/23 05:54:24;;;;;;;18.13;8.47;;;;;;;;;;5117898;27;20099;-68
2023/01/23 05:56:53;;;;;;;18.20;8.33;;;;;;;;;;5117762;27;20042;-69
2023/01/23 05:59:37;;;;;;;16.37;7.37;;;;;;;;;;5134520;27;20043;-69
2023/01/23 06:02:23;;;;;;;18.30;7.17;;;;;;;;;;5124078;27;20055;-66
2023/01/23 06:05:08;;;;;;;16.17;7.87;;;;;;;;;;5102688;27;20357;-69
2023/01/23 06:07:53;;;;;;;17.07;6.63;;;;;;;;;;5117036;27;20055;-67
2023/01/23 06:10:22;;;;;;;16.73;7.17;;;;;;;;;;5100734;27;20099;-69
2023/01/23 06:12:47;;;;;;;16.30;7.03;;;;;;;;;;5082021;27;20402;-69
2023/01/23 06:15:13;;;;;;;17.13;7.70;;;;;;;;;;5116826;27;20088;-69
2023/01/23 06:17:39;;;;;;;16.20;7.30;;;;;;;;;;5099726;27;20050;-68
2023/01/23 06:20:04;;;;;;;17.03;7.33;;;;;;;;;;5116898;27;20045;-70
2023/01/23 06:22:31;;;;;;;18.63;7.63;;;;;;;;;;5083372;27;20063;-68
2023/01/23 06:25:04;;;;;;;16.43;7.63;;;;;;;;;;5100086;27;20039;-70
2023/01/23 06:27:29;;;;;;;15.53;7.77;;;;;;;;;;5082854;27;20137;-68
2023/01/23 06:29:56;;;;;;;18.83;8.03;;;;;;;;;;5083110;27;20039;-68
2023/01/23 06:32:22;;;;;;;19.87;8.33;;;;;;;;;;5100167;27;20038;-69
2023/01/23 06:34:49;;;;;;;19.43;8.30;;;;;;;;;;5100088;27;20042;-67
2023/01/23 06:37:14;;;;;;;18.37;8.57;;;;;;;;;;5133931;27;20034;-67
2023/01/23 06:39:42;;;;;;;22.77;9.33;;;;;;;;;;5133431;27;20043;-67
2023/01/23 06:42:09;;;;;;;23.57;9.37;;;;;;;;;;5100200;27;20050;-67
2023/01/23 06:44:38;;;;;;;22.23;8.20;;;;;;;;;;5105000;27;20057;-68
2023/01/23 06:47:05;;;;;;;24.83;10.50;;;;;;;;;;5134387;27;20063;-64
2023/01/23 06:49:32;;;;;;;18.27;8.43;;;;;;;;;;5082611;27;20128;-66
2023/01/23 06:51:57;;;;;;;16.37;6.83;;;;;;;;;;5098974;27;20031;-66
2023/01/23 06:54:24;;;;;;;19.77;8.17;;;;;;;;;;5116621;27;20045;-64
2023/01/23 06:56:55;;;;;;;17.10;7.90;;;;;;;;;;5114896;27;20031;-64
2023/01/23 06:59:22;;;;;;;16.80;8.00;;;;;;;;;;5097273;27;20034;-66
2023/01/23 07:01:47;;;;;;;16.73;8.10;;;;;;;;;;5079520;27;20103;-66
2023/01/23 07:04:13;;;;;;;17.53;7.87;;;;;;;;;;5128447;27;20069;-66
2023/01/23 07:06:40;;;;;;;15.37;7.57;;;;;;;;;;5112175;27;20031;-70
2023/01/23 07:09:06;;;;;;;19.27;9.03;;;;;;;;;;5112082;27;20151;-69
2023/01/23 07:11:32;;;;;;;21.60;9.90;;;;;;;;;;5096339;27;20583;-70
2023/01/23 07:13:58;;;;;;;27.80;11.27;;;;;;;;;;5095095;27;20039;-66
2023/01/23 07:16:25;;;;;;;28.33;10.57;;;;;;;;;;5093965;27;20028;-66
2023/01/23 07:18:53;;;;;;;31.67;10.50;;;;;;;;;;5095407;27;20099;-65
2023/01/23 07:21:19;;;;;;;23.67;9.63;;;;;;;;;;5113646;27;20043;-66
2023/01/23 07:23:44;;;;;;;25.27;9.17;;;;;;;;;;5093469;28;20051;-67
2023/01/23 07:26:10;;;;;;;23.10;8.93;;;;;;;;;;5078171;28;20035;-67
2023/01/23 07:28:37;;;;;;;15.30;6.47;;;;;;;;;;5112165;28;20046;-67
2023/01/23 07:31:02;;;;;;;12.90;7.17;;;;;;;;;;5095106;28;20039;-67
2023/01/23 07:33:28;;;;;;;16.30;7.63;;;;;;;;;;5108757;27;20035;-66
2023/01/23 07:35:54;;;;;;;13.30;5.93;;;;;;;;;;5078572;27;20028;-67
2023/01/23 07:38:22;;;;;;;15.67;6.77;;;;;;;;;;5113482;27;20469;-66
2023/01/23 07:40:48;;;;;;;19.30;6.97;;;;;;;;;;5132827;27;20096;-68
2023/01/23 07:43:13;;;;;;;11.53;6.17;;;;;;;;;;5121690;27;20035;-69
2023/01/23 07:45:39;;;;;;;14.90;6.97;;;;;;;;;;5076768;27;20424;-67
2023/01/23 07:48:05;;;;;;;21.93;8.10;;;;;;;;;;5096534;27;20027;-68
2023/01/23 07:50:31;;;;;;;17.20;7.43;;;;;;;;;;5093915;28;20027;-67
2023/01/23 07:52:56;;;;;;;21.63;7.80;;;;;;;;;;5111935;27;20028;-65
2023/01/23 07:55:22;;;;;;;19.33;9.27;;;;;;;;;;5097173;27;20051;-62
2023/01/23 07:57:47;;;;;;;16.47;7.73;;;;;;;;;;5113776;27;20038;-64
2023/01/23 08:00:13;;;;;;;19.40;8.13;;;;;;;;;;5097131;27;20058;-64
2023/01/23 08:02:38;;;;;;;15.07;7.63;;;;;;;;;;5095873;28;20071;-64
2023/01/23 08:05:04;;;;;;;16.20;8.30;;;;;;;;;;5130192;27;20062;-65
2023/01/23 08:07:30;;;;;;;16.53;7.57;;;;;;;;;;5113409;27;20031;-65
2023/01/23 08:09:55;;;;;;;16.60;8.20;;;;;;;;;;5079302;27;20035;-62
2023/01/23 08:12:21;;;;;;;17.13;8.00;;;;;;;;;;5096422;27;20027;-69
2023/01/23 08:14:47;;;;;;;19.87;7.23;;;;;;;;;;5078556;27;20015;-63
2023/01/23 08:17:14;;;;;;;22.87;8.77;;;;;;;;;;5115205;27;20027;-65
2023/01/23 08:19:41;;;;;;;14.47;8.17;;;;;;;;;;5104486;27;20171;-66
2023/01/23 08:22:07;;;;;;;15.97;8.07;;;;;;;;;;5096191;27;20118;-66
2023/01/23 08:24:32;;;;;;;17.23;8.30;;;;;;;;;;5095060;27;20039;-64
2023/01/23 08:26:58;;;;;;;19.80;9.37;;;;;;;;;;5095992;27;20076;-66
2023/01/23 08:29:23;;;;;;;24.03;9.57;;;;;;;;;;5112625;27;20046;-64
2023/01/23 08:31:53;;;;;;;19.77;10.07;;;;;;;;;;5094609;27;20034;-66
2023/01/23 08:34:19;;;;;;;21.93;10.10;;;;;;;;;;5096014;27;20041;-66
2023/01/23 08:36:44;;;;;;;23.80;11.33;;;;;;;;;;5112933;27;20027;-64
2023/01/23 08:39:10;;;;;;;23.73;11.60;;;;;;;;;;5095653;27;20125;-65
2023/01/23 08:41:35;;;;;;;21.60;10.83;;;;;;;;;;5089246;27;20027;-65
2023/01/23 08:44:02;;;;;;;28.87;11.30;;;;;;;;;;5095476;27;20034;-65
2023/01/23 08:46:28;;;;;;;28.27;11.87;;;;;;;;;;5093449;27;20541;-65
2023/01/23 08:48:54;;;;;;;42.93;13.67;;;;;;;;;;5095961;27;20133;-65
2023/01/23 08:51:20;;;;;;;25.27;11.90;;;;;;;;;;5130762;27;20027;-64
2023/01/23 08:53:45;;;;;;;32.93;12.83;;;;;;;;;;5095250;27;20039;-65
2023/01/23 08:56:16;;;;;;;26.07;12.10;;;;;;;;;;5094507;27;20498;-65
2023/01/23 08:58:41;;;;;;;24.30;10.55;;;;;;;;;;5107048;27;20122;-65
2023/01/23 09:01:14;;;;;;;23.60;12.10;;;;;;;;;;5110644;28;20039;-65
2023/01/23 09:03:40;;;;;;;33.17;13.10;;;;;;;;;;5109881;27;20051;-65
2023/01/23 09:06:05;;;;;;;28.50;11.73;;;;;;;;;;5110359;27;20030;-66
2023/01/23 09:08:32;;;;;;;26.00;12.17;;;;;;;;;;5110766;28;20470;-65
2023/01/23 09:10:59;;;;;;;28.47;13.27;;;;;;;;;;5129679;28;20350;-64
2023/01/23 09:13:24;;;;;;;22.77;10.37;;;;;;;;;;5126382;28;20096;-62
2023/01/23 09:15:50;;;;;;;28.17;11.83;;;;;;;;;;5106375;28;20027;-65
2023/01/23 09:18:16;;;;;;;31.57;12.20;;;;;;;;;;5094500;28;20604;-64
2023/01/23 09:20:42;;;;;;;25.53;11.03;;;;;;;;;;5108585;28;20050;-64
2023/01/23 09:23:07;;;;;;;27.53;12.43;;;;;;;;;;5093421;28;20481;-65
2023/01/23 09:25:33;;;;;;;25.03;12.67;;;;;;;;;;5077043;28;20027;-65
2023/01/23 09:27:58;;;;;;;30.20;13.10;;;;;;;;;;5128120;28;20050;-64
2023/01/23 09:30:24;;;;;;;26.77;12.33;;;;;;;;;;5092446;28;20285;-63
2023/01/23 09:32:49;;;;;;;31.97;13.13;;;;;;;;;;5110230;28;20114;-66
2023/01/23 09:35:15;;;;;;;26.73;11.80;;;;;;;;;;5076866;28;20038;-65
2023/01/23 09:37:59;;;;;;;27.93;11.50;;;;;;;;;;5093058;28;20042;-65
2023/01/23 09:40:36;;;;;;;27.17;12.27;;;;;;;;;;5093512;28;20069;-64
2023/01/23 09:43:12;;;;;;;27.23;11.80;;;;;;;;;;5109794;28;20143;-65
2023/01/23 09:45:38;;;;;;;34.17;12.90;;;;;;;;;;5110434;28;20035;-66
2023/01/23 09:48:30;;;;;;;26.00;12.03;;;;;;;;;;5090895;28;20429;-65
2023/01/23 09:50:59;;;;;;;26.43;11.60;;;;;;;;;;5082136;28;20035;-64
2023/01/23 09:53:29;;;;;;;23.73;10.90;;;;;;;;;;5109172;28;20027;-64
2023/01/23 09:55:58;;;;;;;29.77;12.15;;;;;;;;;;5093767;28;20020;-63
2023/01/23 09:58:29;;;;;;;27.60;11.73;;;;;;;;;;5077298;28;20035;-64
2023/01/23 10:00:54;;;;;;;;;;;;;;;;;;5129341;28;20074;-60
2023/01/23 10:03:21;;;;;;;24.67;11.43;;;;;;;;;;5092721;28;19963;-65
2023/01/23 10:06:02;;;;;;;27.17;11.17;;;;;;;;;;5110825;28;20055;-65
2023/01/23 10:08:27;;;;;;;24.90;11.20;;;;;;;;;;5129508;28;20791;-64
2023/01/23 10:11:03;;;;;;;23.33;11.00;;;;;;;;;;5094063;28;20035;-64
2023/01/23 10:13:44;;;;;;;26.07;12.40;;;;;;;;;;5126406;28;20539;-64
2023/01/23 10:16:22;;;;;;;26.20;11.30;;;;;;;;;;5094065;28;20484;-65
2023/01/23 10:19:02;;;;;;;26.43;11.77;;;;;;;;;;5106198;28;20028;-65
2023/01/23 10:21:32;;;;;;;25.30;11.27;;;;;;;;;;5106442;28;20042;-65
2023/01/23 10:24:16;;;;;;;28.15;11.63;;;;;;;;;;5089130;28;20050;-65
2023/01/23 10:26:45;;;;;;;26.00;11.63;;;;;;;;;;5105911;27;20115;-65
2023/01/23 10:29:30;;;;;;;27.97;12.30;;;;;;;;;;5096565;27;20612;-65
2023/01/23 10:31:58;;;;;;;28.93;12.40;;;;;;;;;;5098689;27;20043;-64
2023/01/23 10:34:33;;;;;;;32.03;12.33;;;;;;;;;;5115431;27;20041;-65
2023/01/23 10:37:04;;;;;;;32.63;12.47;;;;;;;;;;5114447;27;20076;-65
2023/01/23 10:39:50;;;;;;;28.35;13.43;;;;;;;;;;5132192;27;20041;-66
2023/01/23 10:42:18;;;;;;;27.30;11.97;;;;;;;;;;5131796;27;20020;-66
2023/01/23 10:44:45;;;;;;;31.73;12.67;;;;;;;;;;5129571;27;20099;-66
2023/01/23 10:47:16;;;;;;;32.97;13.37;;;;;;;;;;5114040;27;20609;-65
2023/01/23 10:49:41;;;;;;;;;;;;;;;;;;5111864;27;20110;-66
2023/01/23 10:52:27;;;;;;;29.40;11.77;;;;;;;;;;5114236;27;20005;-66
2023/01/23 10:54:52;;;;;;;31.43;11.20;;;;;;;;;;5129822;27;20056;-65
2023/01/23 10:57:23;;;;;;;30.83;11.93;;;;;;;;;;5096981;27;20408;-65
2023/01/23 10:59:57;;;;;;;36.08;13.23;;;;;;;;;;5080584;27;20023;-68
2023/01/23 11:02:36;;;;;;;30.63;11.60;;;;;;;;;;5112993;27;20047;-66
2023/01/23 11:05:02;;;;;;;27.13;12.00;;;;;;;;;;5096477;27;20133;-66
2023/01/23 11:07:30;;;;;;;29.50;12.00;;;;;;;;;;5116348;27;20076;-66
2023/01/23 11:09:56;;;;;;;34.60;13.80;;;;;;;;;;5133073;27;20027;-65
2023/01/23 11:12:26;;;;;;;30.13;11.87;;;;;;;;;;5081199;27;20060;-66
2023/01/23 11:15:09;;;;;;;37.08;13.38;;;;;;;;;;5114985;27;20050;-65
2023/01/23 11:17:35;;;;;;;33.20;12.90;;;;;;;;;;5097614;27;20129;-67
2023/01/23 11:20:09;;;;;;;30.77;12.10;;;;;;;;;;5097421;27;20130;-65
2023/01/23 11:22:40;;;;;;;31.77;12.30;;;;;;;;;;5128204;27;20456;-66
2023/01/23 11:25:35;;;;;;;34.13;12.73;;;;;;;;;;5114998;27;20054;-66
2023/01/23 11:28:14;;;;;;;33.43;12.77;;;;;;;;;;5097370;27;20357;-65
2023/01/23 11:30:50;;;;;;;33.33;12.37;;;;;;;;;;5097200;27;20043;-65
2023/01/23 11:33:24;;;;;;;35.07;13.87;;;;;;;;;;5097740;27;20035;-66
2023/01/23 11:36:08;;;;;;;32.70;12.50;;;;;;;;;;5099027;27;20027;-66
2023/01/23 11:38:39;;;;;;;35.87;12.57;;;;;;;;;;5097630;27;20042;-66
2023/01/23 11:41:08;;;;;;;36.77;12.67;;;;;;;;;;5096933;27;20057;-67
2023/01/23 11:43:34;;;;;;;37.20;12.57;;;;;;;;;;5112875;27;20437;-68
2023/01/23 11:46:17;;;;;;;39.43;12.77;;;;;;;;;;5111433;27;20566;-66
2023/01/23 11:48:45;;;;;;;34.07;12.20;;;;;;;;;;5127379;27;20118;-67
2023/01/23 11:51:24;;;;;;;36.67;13.48;;;;;;;;;;5095113;27;20079;-69
2023/01/23 11:54:01;;;;;;;35.43;13.30;;;;;;;;;;5127216;27;20368;-67
2023/01/23 11:56:32;;;;;;;41.90;14.80;;;;;;;;;;5078511;27;20031;-68
2023/01/23 11:59:16;;;;;;;36.77;14.17;;;;;;;;;;5130191;27;20031;-66
2023/01/23 12:02:01;;;;;;;36.17;12.27;;;;;;;;;;5113216;27;20031;-67
2023/01/23 12:04:27;;;;;;;42.10;13.00;;;;;;;;;;5081895;28;20060;-67
2023/01/23 12:06:52;;;;;;;38.30;14.00;;;;;;;;;;5055967;28;20042;-66
2023/01/23 12:09:19;;;;;;;38.60;13.97;;;;;;;;;;5072284;28;20024;-68
2023/01/23 12:12:03;;;;;;;43.67;15.23;;;;;;;;;;5087614;28;20436;-67
2023/01/23 12:14:49;;;;;;;36.20;13.37;;;;;;;;;;5086222;28;20089;-69
2023/01/23 12:17:14;;;;;;;36.90;13.20;;;;;;;;;;5070063;28;20032;-69
2023/01/23 12:20:00;;;;;;;38.10;14.10;;;;;;;;;;5073017;28;20116;-67
2023/01/23 12:22:47;;;;;;;39.47;14.80;;;;;;;;;;5073064;28;20032;-68
2023/01/23 12:25:16;;;;;;;39.43;13.33;;;;;;;;;;5069689;28;20039;-67
2023/01/23 12:27:43;;;;;;;40.63;14.17;;;;;;;;;;5055014;28;20093;-67
2023/01/23 12:30:18;;;;;;;43.00;14.07;;;;;;;;;;5088643;28;20036;-67
2023/01/23 12:32:43;;;;;;;42.77;13.87;;;;;;;;;;5070968;28;20085;-67
2023/01/23 12:35:19;;;;;;;39.57;14.00;;;;;;;;;;5052564;28;20040;-68
2023/01/23 12:37:46;;;;;;;44.33;13.80;;;;;;;;;;5105293;28;20024;-68
2023/01/23 12:40:14;;;;;;;40.90;14.33;;;;;;;;;;5054891;28;20040;-67
2023/01/23 12:42:49;;;;;;;46.93;14.57;;;;;;;;;;5070580;28;20028;-67
2023/01/23 12:45:22;;;;;;;44.07;15.57;;;;;;;;;;5085554;28;20047;-66
2023/01/23 12:47:51;;;;;;;44.17;15.13;;;;;;;;;;5070105;28;20078;-67
2023/01/23 12:50:17;;;;;;;49.10;15.27;;;;;;;;;;5066059;28;20043;-68
2023/01/23 12:52:46;;;;;;;49.73;16.43;;;;;;;;;;5071097;28;20052;-67
2023/01/23 12:55:12;;;;;;;42.40;14.30;;;;;;;;;;5083623;28;20064;-67
2023/01/23 12:57:39;;;;;;;46.27;15.70;;;;;;;;;;5086505;28;20083;-68
2023/01/23 13:00:17;;;;;;;42.07;14.60;;;;;;;;;;5052998;28;20065;-67
2023/01/23 13:02:57;;;;;;;44.73;15.93;;;;;;;;;;5054068;28;20038;-66
2023/01/23 13:05:26;;;;;;;48.97;16.00;;;;;;;;;;5070351;28;20193;-67
2023/01/23 13:08:04;;;;;;;48.40;16.17;;;;;;;;;;5084996;28;20032;-68
2023/01/23 13:13:17;;;;;;;44.17;14.30;;;;;;;;;;5086350;28;20046;-66
2023/01/23 13:15:43;;;;;;;48.37;15.63;;;;;;;;;;5089456;28;20096;-66
2023/01/23 13:21:59;;;;;;;53.67;16.20;;;;;;;;;;5071892;28;20374;-67
2023/01/23 13:27:24;;;;;;;44.37;16.23;;;;;;;;;;5089431;28;20063;-66
2023/01/23 13:29:49;;;;;;;49.00;16.63;;;;;;;;;;5071810;28;20059;-66
2023/01/23 13:32:20;;;;;;;55.47;17.70;;;;;;;;;;5089447;28;20063;-67
2023/01/23 13:34:45;;;;;;;50.28;17.15;;;;;;;;;;5070487;28;20135;-65
2023/01/23 13:37:27;;;;;;;45.23;15.53;;;;;;;;;;5068129;28;20441;-67
2023/01/23 13:40:12;;;;;;;48.20;15.33;;;;;;;;;;5042927;28;20036;-66
2023/01/23 13:42:38;;;;;;;45.47;16.83;;;;;;;;;;5067819;28;20036;-66
2023/01/23 13:45:19;;;;;;;45.60;16.87;;;;;;;;;;5067761;28;20105;-67
2023/01/23 13:50:48;;;;;;;51.27;16.73;;;;;;;;;;5069331;28;20037;-67
2023/01/23 13:58:50;;;;;;;44.33;14.77;;;;;;;;;;5085540;28;20083;-67
2023/01/23 14:06:55;;;;;;;45.17;15.43;;;;;;;;;;5092844;28;20035;-66
2023/01/23 14:09:25;;;;;;;46.97;15.30;;;;;;;;;;5091238;28;20031;-66
2023/01/23 14:12:10;;;;;;;52.55;16.45;;;;;;;;;;5085091;28;20131;-65
2023/01/23 14:17:21;;;;;;;45.87;15.63;;;;;;;;;;5092186;28;20097;-66
2023/01/23 14:19:55;;;;;;;47.97;15.63;;;;;;;;;;5058756;28;20046;-66
2023/01/23 14:22:20;;;;;;;42.53;15.27;;;;;;;;;;5092231;28;20047;-67
2023/01/23 14:24:47;;;;;;;42.43;15.80;;;;;;;;;;5109628;28;20048;-67
2023/01/23 14:27:32;;;;;;;43.83;15.20;;;;;;;;;;5074794;28;20063;-66
2023/01/23 14:30:00;;;;;;;48.90;16.37;;;;;;;;;;5089149;28;20046;-65
2023/01/23 14:32:28;;;;;;;42.13;14.80;;;;;;;;;;5090448;28;20039;-67
2023/01/23 14:34:54;;;;;;;48.50;16.53;;;;;;;;;;5091108;28;20060;-67
2023/01/23 14:37:19;;;;;;;46.83;16.80;;;;;;;;;;5073321;28;20067;-68
2023/01/23 14:39:49;;;;;;;43.60;15.70;;;;;;;;;;5073413;28;20078;-65
2023/01/23 14:42:29;;;;;;;49.93;15.97;;;;;;;;;;5090660;28;20032;-65
2023/01/23 14:44:55;;;;;;;43.87;15.60;;;;;;;;;;5089291;28;20048;-66
2023/01/23 14:47:21;;;;;;;47.53;17.40;;;;;;;;;;5073508;28;20219;-66
2023/01/23 14:49:47;;;;;;;43.20;16.37;;;;;;;;;;5073415;28;20093;-66
2023/01/23 14:52:23;;;;;;;49.47;16.80;;;;;;;;;;5091121;28;20150;-66
2023/01/23 14:54:49;;;;;;;59.30;17.50;;;;;;;;;;5090133;28;20028;-66
2023/01/23 14:57:15;;;;;;;40.93;15.53;;;;;;;;;;5073229;28;20032;-66
2023/01/23 14:59:41;;;;;;;37.57;14.67;;;;;;;;;;5107602;28;20039;-65
2023/01/23 15:02:19;;;;;;;43.13;15.20;;;;;;;;;;5073232;28;20131;-67
2023/01/23 15:05:05;;;;;;;46.70;15.73;;;;;;;;;;5070846;28;20058;-66
2023/01/23 15:07:30;;;;;;;49.37;16.50;;;;;;;;;;5079643;28;20036;-66
2023/01/23 15:09:56;;;;;;;47.40;17.00;;;;;;;;;;5101097;28;20035;-67